sensor_id;sensor_type;location;lat;lon;timestamp;temperature;humidity
1055;DHT22;516;51.482;7.120;2022-08-19T00:02:28;17.70;99.90
1055;DHT22;516;51.482;7.120;2022-08-19T00:08:16;17.50;99.90
1055;DHT22;516;51.482;7.120;2022-08-19T00:14:18;17.50;99.90
1055;DHT22;516;51.482;7.120;2022-08-19T00:23:15;17.50;99.90
1055;DHT22;516;51.482;7.120;2022-08-19T00:29:05;17.40;99.90
1055;DHT22;516;51.482;7.120;2022-08-19T00:34:53;17.10;99.90
1055;DHT22;516;51.482;7.120;2022-08-19T00:40:43;17.10;99.90
1055;DHT22;516;51.482;7.120;2022-08-19T00:46:35;17.10;99.90
1055;DHT22;516;51.482;7.120;2022-08-19T00:52:34;17.00;99.90
1055;DHT22;516;51.482;7.120;2022-08-19T00:58:29;16.90;99.90
1055;DHT22;516;51.482;7.120;2022-08-19T01:04:17;16.90;99.90
1055;DHT22;516;51.482;7.120;2022-08-19T01:10:08;16.80;99.90
1055;DHT22;516;51.482;7.120;2022-08-19T01:16:01;16.90;99.90
1055;DHT22;516;51.482;7.120;2022-08-19T01:21:55;16.80;99.90
1055;DHT22;516;51.482;7.120;2022-08-19T01:27:47;16.80;99.90
1055;DHT22;516;51.482;7.120;2022-08-19T01:33:35;16.80;99.90
1055;DHT22;516;51.482;7.120;2022-08-19T01:39:24;16.80;99.90
1055;DHT22;516;51.482;7.120;2022-08-19T01:45:12;16.80;99.90
1055;DHT22;516;51.482;7.120;2022-08-19T01:51:00;16.60;99.90
1055;DHT22;516;51.482;7.120;2022-08-19T01:56:48;16.50;99.90
1055;DHT22;516;51.482;7.120;2022-08-19T02:02:36;16.50;99.90
1055;DHT22;516;51.482;7.120;2022-08-19T02:08:24;16.50;99.90
1055;DHT22;516;51.482;7.120;2022-08-19T02:11:30;16.40;99.90
1055;DHT22;516;51.482;7.120;2022-08-19T02:14:15;16.60;99.90
1055;DHT22;516;51.482;7.120;2022-08-19T02:20:04;16.50;99.90
1055;DHT22;516;51.482;7.120;2022-08-19T02:25:52;16.30;99.90
1055;DHT22;516;51.482;7.120;2022-08-19T02:31:40;16.30;99.90
1055;DHT22;516;51.482;7.120;2022-08-19T02:37:29;16.30;99.90
1055;DHT22;516;51.482;7.120;2022-08-19T02:43:35;16.40;99.90
1055;DHT22;516;51.482;7.120;2022-08-19T02:49:24;16.40;99.90
1055;DHT22;516;51.482;7.120;2022-08-19T02:55:12;16.40;99.90
1055;DHT22;516;51.482;7.120;2022-08-19T03:00:59;16.50;99.90
1055;DHT22;516;51.482;7.120;2022-08-19T03:06:48;16.40;99.90
1055;DHT22;516;51.482;7.120;2022-08-19T03:16:05;16.30;99.90
1055;DHT22;516;51.482;7.120;2022-08-19T03:21:53;16.20;99.90
1055;DHT22;516;51.482;7.120;2022-08-19T03:27:41;16.20;99.90
1055;DHT22;516;51.482;7.120;2022-08-19T03:33:30;16.40;99.90
1055;DHT22;516;51.482;7.120;2022-08-19T03:39:18;16.40;99.90
1055;DHT22;516;51.482;7.120;2022-08-19T03:45:06;16.40;99.90
1055;DHT22;516;51.482;7.120;2022-08-19T03:50:54;16.10;99.90
1055;DHT22;516;51.482;7.120;2022-08-19T03:56:44;16.10;99.90
1055;DHT22;516;51.482;7.120;2022-08-19T04:02:32;16.10;99.90
1055;DHT22;516;51.482;7.120;2022-08-19T04:08:20;16.40;99.90
1055;DHT22;516;51.482;7.120;2022-08-19T04:13:58;16.30;99.90
1055;DHT22;516;51.482;7.120;2022-08-19T04:19:46;16.20;99.90
1055;DHT22;516;51.482;7.120;2022-08-19T04:25:39;16.10;99.90
1055;DHT22;516;51.482;7.120;2022-08-19T04:31:30;16.30;99.90
1055;DHT22;516;51.482;7.120;2022-08-19T04:37:18;16.30;99.90
1055;DHT22;516;51.482;7.120;2022-08-19T04:43:05;16.60;99.90
1055;DHT22;516;51.482;7.120;2022-08-19T04:48:53;16.70;99.90
1055;DHT22;516;51.482;7.120;2022-08-19T04:54:41;16.80;99.90
1055;DHT22;516;51.482;7.120;2022-08-19T05:00:29;17.20;99.90
1055;DHT22;516;51.482;7.120;2022-08-19T05:06:18;17.20;99.90
1055;DHT22;516;51.482;7.120;2022-08-19T05:16:03;17.20;99.90
1055;DHT22;516;51.482;7.120;2022-08-19T05:21:51;17.30;99.90
1055;DHT22;516;51.482;7.120;2022-08-19T05:27:57;17.50;99.90
1055;DHT22;516;51.482;7.120;2022-08-19T05:33:47;18.00;99.90
1055;DHT22;516;51.482;7.120;2022-08-19T05:39:36;18.90;99.90
1055;DHT22;516;51.482;7.120;2022-08-19T05:45:24;19.50;99.90
1055;DHT22;516;51.482;7.120;2022-08-19T05:51:13;20.00;99.90
1055;DHT22;516;51.482;7.120;2022-08-19T05:57:02;19.70;99.90
1055;DHT22;516;51.482;7.120;2022-08-19T06:02:50;19.60;99.90
1055;DHT22;516;51.482;7.120;2022-08-19T06:08:38;20.00;99.90
1055;DHT22;516;51.482;7.120;2022-08-19T06:14:01;20.20;99.90
1055;DHT22;516;51.482;7.120;2022-08-19T06:19:49;20.80;99.90
1055;DHT22;516;51.482;7.120;2022-08-19T06:25:38;20.90;99.90
1055;DHT22;516;51.482;7.120;2022-08-19T06:31:28;21.70;99.90
1055;DHT22;516;51.482;7.120;2022-08-19T06:37:16;21.90;99.90
1055;DHT22;516;51.482;7.120;2022-08-19T06:43:04;21.40;99.90
1055;DHT22;516;51.482;7.120;2022-08-19T06:48:52;21.90;99.90
1055;DHT22;516;51.482;7.120;2022-08-19T06:54:41;21.20;99.90
1055;DHT22;516;51.482;7.120;2022-08-19T07:00:29;21.00;99.90
1055;DHT22;516;51.482;7.120;2022-08-19T07:06:18;21.00;99.90
1055;DHT22;516;51.482;7.120;2022-08-19T07:16:05;21.10;99.90
1055;DHT22;516;51.482;7.120;2022-08-19T07:21:54;21.90;99.90
1055;DHT22;516;51.482;7.120;2022-08-19T07:27:42;21.90;99.90
1055;DHT22;516;51.482;7.120;2022-08-19T07:33:31;22.40;99.90
1055;DHT22;516;51.482;7.120;2022-08-19T07:39:27;22.60;99.90
1055;DHT22;516;51.482;7.120;2022-08-19T07:45:15;22.70;99.90
1055;DHT22;516;51.482;7.120;2022-08-19T07:51:06;23.10;99.90
1055;DHT22;516;51.482;7.120;2022-08-19T07:56:56;22.80;99.90
1055;DHT22;516;51.482;7.120;2022-08-19T08:02:44;22.90;99.90
1055;DHT22;516;51.482;7.120;2022-08-19T08:08:32;22.60;99.90
1055;DHT22;516;51.482;7.120;2022-08-19T08:11:32;22.30;99.90
1055;DHT22;516;51.482;7.120;2022-08-19T08:13:58;22.70;99.90
1055;DHT22;516;51.482;7.120;2022-08-19T08:19:46;22.20;99.90
1055;DHT22;516;51.482;7.120;2022-08-19T08:25:36;22.40;99.90
1055;DHT22;516;51.482;7.120;2022-08-19T08:31:24;23.20;99.90
1055;DHT22;516;51.482;7.120;2022-08-19T08:37:12;23.30;99.90
1055;DHT22;516;51.482;7.120;2022-08-19T08:48:57;23.70;99.90
1055;DHT22;516;51.482;7.120;2022-08-19T08:54:47;24.70;99.90
1055;DHT22;516;51.482;7.120;2022-08-19T09:00:39;24.90;99.90
1055;DHT22;516;51.482;7.120;2022-08-19T09:06:48;24.70;99.90
1055;DHT22;516;51.482;7.120;2022-08-19T09:16:21;24.70;99.90
1055;DHT22;516;51.482;7.120;2022-08-19T09:22:11;25.80;99.90
1055;DHT22;516;51.482;7.120;2022-08-19T09:27:59;25.80;96.40
1055;DHT22;516;51.482;7.120;2022-08-19T09:33:51;25.50;94.30
1055;DHT22;516;51.482;7.120;2022-08-19T09:39:40;25.10;94.30
1055;DHT22;516;51.482;7.120;2022-08-19T09:45:31;24.10;99.50
1055;DHT22;516;51.482;7.120;2022-08-19T09:51:25;24.10;99.50
1055;DHT22;516;51.482;7.120;2022-08-19T09:57:16;24.60;99.90
1055;DHT22;516;51.482;7.120;2022-08-19T10:03:04;25.40;80.80
1055;DHT22;516;51.482;7.120;2022-08-19T10:08:52;25.90;60.50
1055;DHT22;516;51.482;7.120;2022-08-19T10:18:02;25.60;50.90
1055;DHT22;516;51.482;7.120;2022-08-19T10:23:53;25.70;49.60
1055;DHT22;516;51.482;7.120;2022-08-19T10:29:41;26.50;48.50
1055;DHT22;516;51.482;7.120;2022-08-19T10:35:29;26.70;42.20
1055;DHT22;516;51.482;7.120;2022-08-19T10:41:20;26.00;48.90
1055;DHT22;516;51.482;7.120;2022-08-19T10:47:10;27.30;42.50
1055;DHT22;516;51.482;7.120;2022-08-19T10:53:04;26.60;38.20
1055;DHT22;516;51.482;7.120;2022-08-19T10:58:52;25.20;48.00
1055;DHT22;516;51.482;7.120;2022-08-19T11:04:39;25.90;47.80
1055;DHT22;516;51.482;7.120;2022-08-19T11:10:27;26.70;42.30
1055;DHT22;516;51.482;7.120;2022-08-19T11:16:05;25.90;46.80
1055;DHT22;516;51.482;7.120;2022-08-19T11:21:55;26.40;39.70
1055;DHT22;516;51.482;7.120;2022-08-19T11:27:43;26.50;39.40
1055;DHT22;516;51.482;7.120;2022-08-19T11:33:32;26.10;37.80
1055;DHT22;516;51.482;7.120;2022-08-19T11:39:22;27.30;29.40
1055;DHT22;516;51.482;7.120;2022-08-19T11:45:09;27.20;28.00
1055;DHT22;516;51.482;7.120;2022-08-19T11:50:57;27.40;21.80
1055;DHT22;516;51.482;7.120;2022-08-19T11:56:45;27.50;19.80
1055;DHT22;516;51.482;7.120;2022-08-19T12:02:35;26.70;24.50
1055;DHT22;516;51.482;7.120;2022-08-19T12:08:23;25.90;23.40
1055;DHT22;516;51.482;7.120;2022-08-19T12:18:08;26.80;19.50
1055;DHT22;516;51.482;7.120;2022-08-19T12:23:58;27.10;17.70
1055;DHT22;516;51.482;7.120;2022-08-19T12:29:45;27.50;15.80
1055;DHT22;516;51.482;7.120;2022-08-19T12:35:33;28.20;12.60
1055;DHT22;516;51.482;7.120;2022-08-19T12:41:21;28.40;10.00
1055;DHT22;516;51.482;7.120;2022-08-19T12:47:11;28.90;8.80
1055;DHT22;516;51.482;7.120;2022-08-19T12:52:59;27.70;11.30
1055;DHT22;516;51.482;7.120;2022-08-19T12:58:48;28.30;12.00
1055;DHT22;516;51.482;7.120;2022-08-19T13:04:36;28.80;6.60
1055;DHT22;516;51.482;7.120;2022-08-19T13:10:32;28.80;6.50
1055;DHT22;516;51.482;7.120;2022-08-19T13:13:34;29.00;6.20
1055;DHT22;516;51.482;7.120;2022-08-19T13:16:01;29.00;5.90
1055;DHT22;516;51.482;7.120;2022-08-19T13:21:51;28.80;6.60
1055;DHT22;516;51.482;7.120;2022-08-19T13:27:39;28.30;5.80
1055;DHT22;516;51.482;7.120;2022-08-19T13:33:27;28.80;4.50
1055;DHT22;516;51.482;7.120;2022-08-19T13:39:16;29.10;4.10
1055;DHT22;516;51.482;7.120;2022-08-19T13:45:04;28.80;4.50
1055;DHT22;516;51.482;7.120;2022-08-19T13:50:54;28.00;7.00
1055;DHT22;516;51.482;7.120;2022-08-19T13:56:44;28.20;5.80
1055;DHT22;516;51.482;7.120;2022-08-19T14:02:33;29.00;5.80
1055;DHT22;516;51.482;7.120;2022-08-19T14:08:21;28.50;3.10
1055;DHT22;516;51.482;7.120;2022-08-19T14:18:06;27.20;6.20
1055;DHT22;516;51.482;7.120;2022-08-19T14:23:54;27.10;6.70
1055;DHT22;516;51.482;7.120;2022-08-19T14:29:42;28.40;4.20
1055;DHT22;516;51.482;7.120;2022-08-19T14:35:32;28.10;3.80
1055;DHT22;516;51.482;7.120;2022-08-19T14:41:23;28.80;3.90
1055;DHT22;516;51.482;7.120;2022-08-19T14:47:11;29.10;3.30
1055;DHT22;516;51.482;7.120;2022-08-19T14:53:02;27.50;3.60
1055;DHT22;516;51.482;7.120;2022-08-19T14:58:51;29.10;1.30
1055;DHT22;516;51.482;7.120;2022-08-19T15:04:39;28.00;3.90
1055;DHT22;516;51.482;7.120;2022-08-19T15:10:27;28.50;3.20
1055;DHT22;516;51.482;7.120;2022-08-19T15:15:57;30.60;1.40
1055;DHT22;516;51.482;7.120;2022-08-19T15:21:44;28.00;2.40
1055;DHT22;516;51.482;7.120;2022-08-19T15:27:32;29.90;1.00
1055;DHT22;516;51.482;7.120;2022-08-19T15:33:20;27.70;3.70
1055;DHT22;516;51.482;7.120;2022-08-19T15:39:08;28.50;4.90
1055;DHT22;516;51.482;7.120;2022-08-19T15:44:56;29.20;1.00
1055;DHT22;516;51.482;7.120;2022-08-19T15:50:45;27.80;4.70
1055;DHT22;516;51.482;7.120;2022-08-19T15:56:33;30.10;2.50
1055;DHT22;516;51.482;7.120;2022-08-19T16:02:40;29.70;1.00
1055;DHT22;516;51.482;7.120;2022-08-19T16:08:46;29.40;1.00
1055;DHT22;516;51.482;7.120;2022-08-19T16:18:01;28.70;1.00
1055;DHT22;516;51.482;7.120;2022-08-19T16:23:50;28.20;1.00
1055;DHT22;516;51.482;7.120;2022-08-19T16:29:38;30.10;1.00
1055;DHT22;516;51.482;7.120;2022-08-19T16:35:26;29.60;1.00
1055;DHT22;516;51.482;7.120;2022-08-19T16:41:13;29.70;1.00
1055;DHT22;516;51.482;7.120;2022-08-19T16:47:01;28.00;1.00
1055;DHT22;516;51.482;7.120;2022-08-19T16:52:48;26.70;3.20
1055;DHT22;516;51.482;7.120;2022-08-19T16:58:37;26.30;5.40
1055;DHT22;516;51.482;7.120;2022-08-19T17:04:24;25.90;7.30
1055;DHT22;516;51.482;7.120;2022-08-19T17:10:12;25.80;8.90
1055;DHT22;516;51.482;7.120;2022-08-19T17:16:00;25.40;10.60
1055;DHT22;516;51.482;7.120;2022-08-19T17:21:48;25.80;11.10
1055;DHT22;516;51.482;7.120;2022-08-19T17:27:36;25.70;12.40
1055;DHT22;516;51.482;7.120;2022-08-19T17:33:24;25.80;12.40
1055;DHT22;516;51.482;7.120;2022-08-19T17:39:14;25.80;12.20
1055;DHT22;516;51.482;7.120;2022-08-19T17:45:02;25.80;12.20
1055;DHT22;516;51.482;7.120;2022-08-19T17:50:50;25.80;13.60
1055;DHT22;516;51.482;7.120;2022-08-19T17:56:38;25.70;13.50
1055;DHT22;516;51.482;7.120;2022-08-19T18:02:27;25.50;14.10
1055;DHT22;516;51.482;7.120;2022-08-19T18:08:14;25.30;15.20
1055;DHT22;516;51.482;7.120;2022-08-19T18:18:06;24.90;17.70
1055;DHT22;516;51.482;7.120;2022-08-19T18:23:56;24.60;19.50
1055;DHT22;516;51.482;7.120;2022-08-19T18:29:44;24.50;18.80
1055;DHT22;516;51.482;7.120;2022-08-19T18:35:32;24.30;20.20
1055;DHT22;516;51.482;7.120;2022-08-19T18:41:20;24.20;20.30
1055;DHT22;516;51.482;7.120;2022-08-19T18:47:26;24.00;23.90
1055;DHT22;516;51.482;7.120;2022-08-19T18:53:34;23.70;28.80
1055;DHT22;516;51.482;7.120;2022-08-19T18:59:26;23.60;37.80
1055;DHT22;516;51.482;7.120;2022-08-19T19:05:14;23.70;50.80
1055;DHT22;516;51.482;7.120;2022-08-19T19:11:02;23.50;62.90
1055;DHT22;516;51.482;7.120;2022-08-19T19:13:33;23.40;72.00
1055;DHT22;516;51.482;7.120;2022-08-19T19:15:59;23.40;79.00
1055;DHT22;516;51.482;7.120;2022-08-19T19:21:48;23.40;86.20
1055;DHT22;516;51.482;7.120;2022-08-19T19:27:37;23.30;92.20
1055;DHT22;516;51.482;7.120;2022-08-19T19:33:27;23.20;96.20
1055;DHT22;516;51.482;7.120;2022-08-19T19:39:15;22.90;99.90
1055;DHT22;516;51.482;7.120;2022-08-19T19:45:03;22.70;99.90
1055;DHT22;516;51.482;7.120;2022-08-19T19:50:51;22.60;99.90
1055;DHT22;516;51.482;7.120;2022-08-19T19:56:41;22.40;99.90
1055;DHT22;516;51.482;7.120;2022-08-19T20:02:29;22.20;99.90
1055;DHT22;516;51.482;7.120;2022-08-19T20:08:17;22.10;99.90
1055;DHT22;516;51.482;7.120;2022-08-19T20:18:06;21.90;99.90
1055;DHT22;516;51.482;7.120;2022-08-19T20:23:55;21.90;99.90
1055;DHT22;516;51.482;7.120;2022-08-19T20:29:43;21.80;99.90
1055;DHT22;516;51.482;7.120;2022-08-19T20:35:31;21.70;99.90
1055;DHT22;516;51.482;7.120;2022-08-19T20:41:19;21.60;99.90
1055;DHT22;516;51.482;7.120;2022-08-19T20:47:08;21.30;99.90
1055;DHT22;516;51.482;7.120;2022-08-19T20:52:56;21.30;99.90
1055;DHT22;516;51.482;7.120;2022-08-19T20:58:43;21.20;99.90
1055;DHT22;516;51.482;7.120;2022-08-19T21:04:31;21.10;99.90
1055;DHT22;516;51.482;7.120;2022-08-19T21:10:19;21.00;99.90
1055;DHT22;516;51.482;7.120;2022-08-19T21:16:19;21.00;99.90
1055;DHT22;516;51.482;7.120;2022-08-19T21:22:06;21.10;99.90
1055;DHT22;516;51.482;7.120;2022-08-19T21:27:53;21.10;99.90
1055;DHT22;516;51.482;7.120;2022-08-19T21:33:41;21.20;99.90
1055;DHT22;516;51.482;7.120;2022-08-19T21:39:28;21.30;99.90
1055;DHT22;516;51.482;7.120;2022-08-19T21:45:16;21.30;99.90
1055;DHT22;516;51.482;7.120;2022-08-19T21:51:08;21.40;99.90
1055;DHT22;516;51.482;7.120;2022-08-19T21:56:56;21.60;99.90
1055;DHT22;516;51.482;7.120;2022-08-19T22:02:44;21.60;99.90
1055;DHT22;516;51.482;7.120;2022-08-19T22:08:32;21.60;99.90
1055;DHT22;516;51.482;7.120;2022-08-19T22:18:07;21.60;99.90
1055;DHT22;516;51.482;7.120;2022-08-19T22:23:55;21.60;99.90
1055;DHT22;516;51.482;7.120;2022-08-19T22:29:42;21.50;99.90
1055;DHT22;516;51.482;7.120;2022-08-19T22:35:33;21.60;99.90
1055;DHT22;516;51.482;7.120;2022-08-19T22:41:22;21.50;99.90
1055;DHT22;516;51.482;7.120;2022-08-19T22:47:09;21.10;99.90
1055;DHT22;516;51.482;7.120;2022-08-19T22:52:58;20.50;99.90
1055;DHT22;516;51.482;7.120;2022-08-19T22:58:47;20.40;99.90
1055;DHT22;516;51.482;7.120;2022-08-19T23:04:36;20.30;99.90
1055;DHT22;516;51.482;7.120;2022-08-19T23:10:25;20.00;99.90
1055;DHT22;516;51.482;7.120;2022-08-19T23:16:03;19.70;99.90
1055;DHT22;516;51.482;7.120;2022-08-19T23:21:51;19.50;99.90
1055;DHT22;516;51.482;7.120;2022-08-19T23:27:39;19.70;99.90
1055;DHT22;516;51.482;7.120;2022-08-19T23:33:47;19.70;99.90
1055;DHT22;516;51.482;7.120;2022-08-19T23:39:37;19.80;99.90
1055;DHT22;516;51.482;7.120;2022-08-19T23:45:25;19.80;99.90
1055;DHT22;516;51.482;7.120;2022-08-19T23:51:15;19.90;99.90
1055;DHT22;516;51.482;7.120;2022-08-19T23:57:04;19.80;99.90
